Bonaria — ICUS — position and weather

sailwx.info

Track history (hours):
 
Tides and Currents Weather Stations Pressure Air Temp Water Temp Dewpoint Dewpoint Depression Visibility Wind Speed Wind Dir Waves Ship Positions

Bonaria

Last reported at 2016-Sep-25 17:33 UTC. Time now 2016-Sep-26 14:00 UTC.
Position N 39°08' E 009°12'.

Length 214 m; draft 7 m.

Type: Passenger vessel. MMSI: 247322400.

Date/timePositionNaut miles runAvg speedWind from/ knotsBaromVisibWave heightAir tempDewpointWater temp
2016-Sep-25 17:33N 39°08' E 009°12'7 6.7
2016-Sep-25 16:32N 39°13' E 009°06'0 0.0
2016-Sep-25 15:32N 39°13' E 009°06'0 0.0
2016-Sep-25 14:32N 39°13' E 009°06'0 0.0
2016-Sep-25 12:32N 39°13' E 009°06'0 0.0
2016-Sep-25 11:32N 39°13' E 009°06'0 0.0
2016-Sep-25 10:32N 39°13' E 009°06'0 0.0
2016-Sep-25 09:32N 39°13' E 009°06'0 0.0
2016-Sep-25 07:32N 39°13' E 009°06'23 0.6
2016-Sep-23 19:33N 38°59' E 009°30'2311.4
2016-Sep-23 17:32N 39°13' E 009°06'0 0.0
2016-Sep-23 16:32N 39°13' E 009°06'0 0.0
2016-Sep-23 15:32N 39°13' E 009°06'0 0.0
2016-Sep-23 13:32N 39°13' E 009°06'0 0.0
2016-Sep-23 09:32N 39°13' E 009°06'0 0.0
2016-Sep-23 06:32N 39°13' E 009°06'0 0.0
2016-Sep-21 09:31N 39°13' E 009°06'0 0.0
2016-Sep-21 08:31N 39°13' E 009°06'7 2.3
2016-Sep-21 05:33N 39°08' E 009°12'18 0.5
2016-Sep-19 19:31N 38°58' E 009°32'2020.4
2016-Sep-19 18:33N 39°08' E 009°11'5 2.6
2016-Sep-19 16:28N 39°13' E 009°06'0 0.0
2016-Sep-19 14:31N 39°13' E 009°06'0 0.0
2016-Sep-19 13:31N 39°13' E 009°06'0 0.0
2016-Sep-19 12:31N 39°13' E 009°06'0 0.0
2016-Sep-19 11:31N 39°13' E 009°06'0 0.0
2016-Sep-19 09:31N 39°13' E 009°06'0 0.0
2016-Sep-19 07:31N 39°13' E 009°06'0 0.0
2016-Sep-19 06:33N 39°13' E 009°06'18 0.5
2016-Sep-17 19:05N 39°02' E 009°24'18 3.2
2016-Sep-17 13:32N 39°13' E 009°06'0 0.0
2016-Sep-17 12:32N 39°13' E 009°06'0 0.0
2016-Sep-17 10:32N 39°13' E 009°06'0 0.0
2016-Sep-17 09:32N 39°13' E 009°06'0 0.0
2016-Sep-17 08:32N 39°13' E 009°06'7 6.9
2016-Sep-17 07:33N 39°08' E 009°12'0 0.0
2016-Sep-15 18:33N 39°08' E 009°12'  
Track history (hours):
 
Tides and Currents Weather Stations Pressure Air Temp Water Temp Dewpoint Dewpoint Depression Visibility Wind Speed Wind Dir Waves Ship Positions

Bonaria

Last reported at 2016-Sep-25 17:33 UTC. Time now 2016-Sep-26 14:00 UTC.
Position N 39°08' E 009°12'.

Length 214 m; draft 7 m.

Type: Passenger vessel. MMSI: 247322400.

Date/timePositionNaut miles runAvg speedWind from/ knotsBaromVisibWave heightAir tempDewpointWater temp
2016-Sep-25 17:33N 39°08' E 009°12'7 6.7
2016-Sep-25 16:32N 39°13' E 009°06'0 0.0
2016-Sep-25 15:32N 39°13' E 009°06'0 0.0
2016-Sep-25 14:32N 39°13' E 009°06'0 0.0
2016-Sep-25 12:32N 39°13' E 009°06'0 0.0
2016-Sep-25 11:32N 39°13' E 009°06'0 0.0
2016-Sep-25 10:32N 39°13' E 009°06'0 0.0
2016-Sep-25 09:32N 39°13' E 009°06'0 0.0
2016-Sep-25 07:32N 39°13' E 009°06'23 0.6
2016-Sep-23 19:33N 38°59' E 009°30'2311.4
2016-Sep-23 17:32N 39°13' E 009°06'0 0.0
2016-Sep-23 16:32N 39°13' E 009°06'0 0.0
2016-Sep-23 15:32N 39°13' E 009°06'0 0.0
2016-Sep-23 13:32N 39°13' E 009°06'0 0.0
2016-Sep-23 09:32N 39°13' E 009°06'0 0.0
2016-Sep-23 06:32N 39°13' E 009°06'0 0.0
2016-Sep-21 09:31N 39°13' E 009°06'0 0.0
2016-Sep-21 08:31N 39°13' E 009°06'7 2.3
2016-Sep-21 05:33N 39°08' E 009°12'18 0.5
2016-Sep-19 19:31N 38°58' E 009°32'2020.4
2016-Sep-19 18:33N 39°08' E 009°11'5 2.6
2016-Sep-19 16:28N 39°13' E 009°06'0 0.0
2016-Sep-19 14:31N 39°13' E 009°06'0 0.0
2016-Sep-19 13:31N 39°13' E 009°06'0 0.0
2016-Sep-19 12:31N 39°13' E 009°06'0 0.0
2016-Sep-19 11:31N 39°13' E 009°06'0 0.0
2016-Sep-19 09:31N 39°13' E 009°06'0 0.0
2016-Sep-19 07:31N 39°13' E 009°06'0 0.0
2016-Sep-19 06:33N 39°13' E 009°06'18 0.5
2016-Sep-17 19:05N 39°02' E 009°24'18 3.2
2016-Sep-17 13:32N 39°13' E 009°06'0 0.0
2016-Sep-17 12:32N 39°13' E 009°06'0 0.0
2016-Sep-17 10:32N 39°13' E 009°06'0 0.0
2016-Sep-17 09:32N 39°13' E 009°06'0 0.0
2016-Sep-17 08:32N 39°13' E 009°06'7 6.9
2016-Sep-17 07:33N 39°08' E 009°12'0 0.0
2016-Sep-15 18:33N 39°08' E 009°12'  

Dump ship's entire track history